createdAt,value
2023-02-25T00:02:15.751Z,100808.31
2023-02-25T00:04:44.362Z,100781.06
2023-02-25T00:07:12.896Z,100816.25
2023-02-25T00:09:42.788Z,100812.72
2023-02-25T00:12:11.455Z,100805.63
2023-02-25T00:14:40.672Z,100781.00
2023-02-25T00:17:09.038Z,100789.88
2023-02-25T00:19:37.532Z,100603.34
2023-02-25T00:22:05.924Z,100812.78
2023-02-25T00:24:34.234Z,100807.41
2023-02-25T00:27:04.399Z,100799.41
2023-02-25T00:29:32.973Z,100768.50
2023-02-25T00:32:01.445Z,100805.53
2023-02-25T00:34:29.915Z,100784.50
2023-02-25T00:36:58.326Z,100797.63
2023-02-25T00:39:42.137Z,100796.75
2023-02-25T00:42:13.429Z,100709.63
2023-02-25T00:44:45.786Z,100726.41
2023-02-25T00:47:15.230Z,100805.56
2023-02-25T00:49:43.750Z,100777.41
2023-02-25T00:52:12.899Z,100807.38
2023-02-25T00:54:41.244Z,100817.84
2023-02-25T00:57:11.226Z,100817.88
2023-02-25T00:59:39.686Z,100816.97
2023-02-25T01:02:08.296Z,100814.44
2023-02-25T01:04:36.804Z,100808.19
2023-02-25T01:07:05.296Z,100809.03
2023-02-25T01:09:34.334Z,100795.81
2023-02-25T01:12:03.073Z,100820.44
2023-02-25T01:14:33.516Z,100820.47
2023-02-25T01:17:03.331Z,100823.09
2023-02-25T01:19:31.922Z,100828.41
2023-02-25T01:22:01.096Z,100802.97
2023-02-25T01:24:32.052Z,100837.19
2023-02-25T01:27:03.465Z,100832.78
2023-02-25T01:29:37.047Z,100824.94
2023-02-25T01:32:06.925Z,100833.56
2023-02-25T01:34:36.047Z,100831.91
2023-02-25T01:37:05.302Z,100830.16
2023-02-25T01:39:34.520Z,100824.84
2023-02-25T01:42:06.613Z,100823.91
2023-02-25T01:45:26.677Z,100814.22
2023-02-25T01:48:01.382Z,100822.19
2023-02-25T01:50:40.024Z,100826.53
2023-02-25T01:53:09.862Z,100825.75
2023-02-25T01:55:41.633Z,100822.28
2023-02-25T01:58:11.219Z,100823.94
2023-02-25T02:00:42.959Z,100819.69
2023-02-25T02:03:16.029Z,100817.97
2023-02-25T02:06:06.617Z,100810.06
2023-02-25T02:08:36.839Z,100831.13
2023-02-25T02:11:06.350Z,100846.94
2023-02-25T02:13:38.425Z,100838.03
2023-02-25T02:16:24.121Z,100838.88
2023-02-25T02:18:58.698Z,100836.25
2023-02-25T02:21:54.707Z,100818.59
2023-02-25T02:25:07.364Z,100830.88
2023-02-25T02:28:02.389Z,100825.63
2023-02-25T02:31:09.934Z,100832.69
2023-02-25T02:33:48.917Z,100826.56
2023-02-25T02:36:26.075Z,100829.00
2023-02-25T02:39:03.282Z,100829.97
2023-02-25T02:41:36.799Z,100790.28
2023-02-25T02:44:11.726Z,100827.25
2023-02-25T02:46:48.060Z,100831.69
2023-02-25T02:49:23.143Z,100829.84
2023-02-25T02:51:56.844Z,100833.31
2023-02-25T02:54:29.094Z,100814.72
2023-02-25T02:57:00.045Z,100833.50
2023-02-25T02:59:34.609Z,100795.38
2023-02-25T03:02:10.989Z,100834.22
2023-02-25T03:04:43.135Z,100821.91
2023-02-25T03:07:13.503Z,100830.88
2023-02-25T03:09:48.233Z,100832.72
2023-02-25T03:12:16.869Z,100836.31
2023-02-25T03:14:45.286Z,100802.94
2023-02-25T03:17:19.490Z,100817.06
2023-02-25T03:19:53.466Z,100817.97
2023-02-25T03:22:27.886Z,100829.44
2023-02-25T03:25:02.329Z,100832.06
2023-02-25T03:27:36.236Z,100830.16
2023-02-25T03:30:13.115Z,100839.94
2023-02-25T03:32:48.959Z,100831.13
2023-02-25T03:35:21.527Z,100844.31
2023-02-25T03:37:53.185Z,100849.56
2023-02-25T03:40:23.580Z,100837.28
2023-02-25T03:42:58.447Z,100829.31
2023-02-25T03:45:26.975Z,100843.41
2023-02-25T03:47:58.946Z,100797.69
2023-02-25T03:50:33.331Z,100828.47
2023-02-25T03:53:05.041Z,100864.53
2023-02-25T03:56:13.102Z,100864.31
2023-02-25T03:58:45.555Z,100874.81
2023-02-25T04:01:18.033Z,100834.38
2023-02-25T04:03:48.710Z,100841.44
2023-02-25T04:06:17.385Z,100836.81
2023-02-25T04:08:45.672Z,100848.28
2023-02-25T04:11:13.985Z,100844.75
2023-02-25T04:13:44.652Z,100845.53
2023-02-25T04:16:14.066Z,100844.75
2023-02-25T04:18:42.570Z,100858.78
2023-02-25T04:21:29.860Z,100871.13
2023-02-25T04:23:58.844Z,100881.63
2023-02-25T04:26:27.466Z,100847.38
2023-02-25T04:28:56.127Z,100868.53
2023-02-25T04:31:24.639Z,100878.25
2023-02-25T04:33:53.105Z,100877.41
2023-02-25T04:36:29.899Z,100879.25
2023-02-25T04:38:59.765Z,100882.63
2023-02-25T04:41:31.991Z,100884.53
2023-02-25T04:44:03.923Z,100882.75
2023-02-25T04:46:33.514Z,100880.13
2023-02-25T04:49:02.582Z,100880.28
2023-02-25T04:51:32.504Z,100782.47
2023-02-25T04:54:00.858Z,100778.97
2023-02-25T04:56:29.206Z,100874.94
2023-02-25T04:58:58.392Z,100878.53
2023-02-25T05:01:26.823Z,100876.78
2023-02-25T05:03:57.007Z,100881.22
2023-02-25T05:06:26.109Z,100877.66
2023-02-25T05:08:57.357Z,100868.88
2023-02-25T05:11:28.466Z,100880.22
2023-02-25T05:13:57.306Z,100871.41
2023-02-25T05:16:27.234Z,100883.72
2023-02-25T05:18:55.948Z,100877.47
2023-02-25T05:21:27.267Z,100882.88
2023-02-25T05:23:57.012Z,100888.94
2023-02-25T05:26:26.539Z,100889.91
2023-02-25T05:28:57.635Z,100814.94
2023-02-25T05:31:27.054Z,100886.44
2023-02-25T05:33:55.679Z,100879.25
2023-02-25T05:36:27.802Z,100891.72
2023-02-25T05:39:02.655Z,100881.16
2023-02-25T05:41:31.383Z,100884.72
2023-02-25T05:43:59.791Z,100886.44
2023-02-25T05:46:28.458Z,100862.41
2023-02-25T05:48:56.950Z,100877.50
2023-02-25T05:51:25.455Z,100895.94
2023-02-25T05:53:54.097Z,100906.31
2023-02-25T05:56:28.841Z,100894.09
2023-02-25T05:58:58.601Z,100881.69
2023-02-25T06:01:29.520Z,100916.72
2023-02-25T06:03:59.168Z,100907.06
2023-02-25T06:06:29.760Z,100913.22
2023-02-25T06:08:58.340Z,100902.75
2023-02-25T06:11:32.060Z,100878.06
2023-02-25T06:14:01.672Z,100899.13
2023-02-25T06:16:32.177Z,100894.63
2023-02-25T06:19:02.516Z,100797.47
2023-02-25T06:21:31.392Z,100781.59
2023-02-25T06:23:59.812Z,100913.84
2023-02-25T06:26:30.157Z,100805.94
2023-02-25T06:28:58.676Z,100888.88
2023-02-25T06:31:27.524Z,100909.22
2023-02-25T06:33:56.213Z,100911.00
2023-02-25T06:36:24.960Z,100916.25
2023-02-25T06:38:53.567Z,100917.38
2023-02-25T06:41:23.862Z,100923.59
2023-02-25T06:43:54.423Z,100923.72
2023-02-25T06:46:25.057Z,100936.94
2023-02-25T06:48:54.207Z,100949.91
2023-02-25T06:51:22.765Z,100957.81
2023-02-25T06:53:52.972Z,100973.66
2023-02-25T06:56:22.922Z,100963.06
2023-02-25T06:58:56.727Z,100953.47
2023-02-25T07:01:25.269Z,100960.59
2023-02-25T07:03:54.098Z,100951.78
2023-02-25T07:06:22.555Z,100956.06
2023-02-25T07:08:51.137Z,100949.84
2023-02-25T07:11:30.352Z,100965.69
2023-02-25T07:14:00.074Z,100974.63
2023-02-25T07:16:29.970Z,100986.88
2023-02-25T07:19:02.219Z,100889.81
2023-02-25T07:21:31.684Z,100985.84
2023-02-25T07:24:00.438Z,100964.72
2023-02-25T07:26:29.269Z,100980.59
2023-02-25T07:29:00.468Z,100968.31
2023-02-25T07:31:30.085Z,100984.88
2023-02-25T07:34:03.489Z,100984.19
2023-02-25T07:36:33.190Z,100953.44
2023-02-25T07:39:03.558Z,100975.31
2023-02-25T07:41:32.698Z,100959.50
2023-02-25T07:44:07.344Z,100970.13
2023-02-25T07:46:36.109Z,100988.84
2023-02-25T07:49:04.521Z,100997.03
2023-02-25T07:51:32.933Z,100945.19
2023-02-25T07:54:01.732Z,100984.16
2023-02-25T07:56:31.741Z,100986.97
2023-02-25T07:59:00.250Z,101002.06
2023-02-25T08:01:34.657Z,101014.41
2023-02-25T08:04:06.275Z,101017.97
2023-02-25T08:06:38.565Z,101006.44
2023-02-25T08:09:07.415Z,100991.38
2023-02-25T08:11:36.429Z,101009.00
2023-02-25T08:14:05.954Z,101008.13
2023-02-25T08:16:35.831Z,100983.53
2023-02-25T08:19:04.759Z,100979.91
2023-02-25T08:21:33.524Z,101019.56
2023-02-25T08:24:02.026Z,100914.03
2023-02-25T08:26:30.381Z,101026.75
2023-02-25T08:28:58.891Z,101018.88
2023-02-25T08:31:28.080Z,101017.09
2023-02-25T08:33:59.540Z,101020.63
2023-02-25T08:36:30.551Z,101014.41
2023-02-25T08:39:01.149Z,101020.50
2023-02-25T08:41:30.386Z,101021.19
2023-02-25T08:44:01.885Z,100902.22
2023-02-25T08:46:33.957Z,101020.09
2023-02-25T08:49:03.846Z,101016.50
2023-02-25T08:51:38.540Z,101030.50
2023-02-25T08:54:09.220Z,101023.19
2023-02-25T08:56:37.901Z,101027.69
2023-02-25T08:59:06.675Z,101033.91
2023-02-25T09:01:45.647Z,101017.22
2023-02-25T09:04:18.316Z,101022.34
2023-02-25T09:06:48.056Z,101028.88
2023-02-25T09:09:17.612Z,101029.84
2023-02-25T09:11:47.324Z,101031.66
2023-02-25T09:14:16.567Z,101039.38
2023-02-25T09:16:45.136Z,101041.72
2023-02-25T09:19:18.256Z,101024.22
2023-02-25T09:21:48.733Z,101045.41
2023-02-25T09:24:17.578Z,101043.72
2023-02-25T09:26:46.366Z,101055.84
2023-02-25T09:29:14.916Z,101059.00
2023-02-25T09:31:43.441Z,101069.50
2023-02-25T09:34:14.523Z,101075.75
2023-02-25T09:36:44.321Z,101067.38
2023-02-25T09:39:13.174Z,101045.28
2023-02-25T09:41:50.838Z,101019.19
2023-02-25T09:44:23.384Z,101088.00
2023-02-25T09:46:57.358Z,101087.31
2023-02-25T09:49:32.417Z,101092.66
2023-02-25T09:52:09.442Z,101098.84
2023-02-25T09:54:44.889Z,101109.47
2023-02-25T09:57:19.139Z,101108.63
2023-02-25T09:59:48.602Z,101105.09
2023-02-25T10:02:37.286Z,101090.84
2023-02-25T10:05:23.477Z,101116.22
2023-02-25T10:08:03.524Z,101111.41
2023-02-25T10:10:40.679Z,101113.78
2023-02-25T10:13:25.088Z,101118.88
2023-02-25T10:16:06.307Z,101037.22
2023-02-25T10:19:01.784Z,101119.91
2023-02-25T10:21:55.782Z,101114.44
2023-02-25T10:24:32.282Z,101115.88
2023-02-25T10:27:11.444Z,101114.13
2023-02-25T10:29:46.485Z,101136.00
2023-02-25T10:32:21.549Z,101010.88
2023-02-25T10:34:52.368Z,101136.75
2023-02-25T10:37:27.013Z,101122.59
2023-02-25T10:40:00.618Z,101125.53
2023-02-25T10:42:30.003Z,101128.97
2023-02-25T10:45:08.246Z,101122.16
2023-02-25T10:47:39.327Z,101128.97
2023-02-25T10:50:19.342Z,101130.03
2023-02-25T10:53:01.209Z,101128.50
2023-02-25T10:55:51.935Z,101140.84
2023-02-25T10:58:38.549Z,101144.50
2023-02-25T11:01:15.364Z,101118.88
2023-02-25T11:03:55.235Z,101146.16
2023-02-25T11:06:30.224Z,101147.69
2023-02-25T11:09:00.597Z,101151.03
2023-02-25T11:11:33.036Z,101156.28
2023-02-25T11:14:06.226Z,101098.72
2023-02-25T11:16:38.111Z,101168.31
2023-02-25T11:19:16.203Z,101167.19
2023-02-25T11:21:45.615Z,101172.41
2023-02-25T11:24:17.824Z,101177.00
2023-02-25T11:26:51.195Z,101177.94
2023-02-25T11:29:24.998Z,101182.34
2023-02-25T11:31:57.811Z,101165.56
2023-02-25T11:34:30.613Z,101163.09
2023-02-25T11:37:26.868Z,101174.81
2023-02-25T11:39:57.121Z,101184.78
2023-02-25T11:42:30.159Z,101166.25
2023-02-25T11:45:01.647Z,101189.22
2023-02-25T11:47:33.290Z,101169.03
2023-02-25T11:50:13.701Z,101086.34
2023-02-25T11:52:45.980Z,101183.31
2023-02-25T11:55:37.895Z,101178.19
2023-02-25T11:58:23.017Z,101202.97
2023-02-25T12:01:00.459Z,101215.34
2023-02-25T12:04:01.438Z,101128.09
2023-02-25T12:07:15.797Z,101225.16
2023-02-25T12:10:13.195Z,101221.59
2023-02-25T12:13:35.640Z,101211.81
2023-02-25T12:16:44.669Z,101218.75
2023-02-25T12:20:14.507Z,101220.50
2023-02-25T12:23:29.008Z,101212.47
2023-02-25T12:26:07.487Z,101219.56
2023-02-25T12:29:05.441Z,101219.59
2023-02-25T12:32:13.073Z,101186.13
2023-02-25T12:35:25.065Z,101204.69
2023-02-25T12:38:38.037Z,101220.69
2023-02-25T12:41:35.027Z,101224.16
2023-02-25T12:44:45.411Z,101201.25
2023-02-25T12:47:27.186Z,101211.84
2023-02-25T12:50:35.822Z,101221.56
2023-02-25T12:53:26.298Z,101227.75
2023-02-25T12:56:13.870Z,101223.38
2023-02-25T12:58:56.606Z,101233.94
2023-02-25T13:01:44.018Z,101221.59
2023-02-25T13:04:35.815Z,101214.47
2023-02-25T13:07:31.307Z,101216.13
2023-02-25T13:10:19.284Z,101221.38
2023-02-25T13:13:03.487Z,101224.97
2023-02-25T13:15:39.460Z,101231.94
2023-02-25T13:18:26.674Z,101235.53
2023-02-25T13:21:35.273Z,101233.75
2023-02-25T13:24:35.153Z,101234.63
2023-02-25T13:27:35.910Z,101237.34
2023-02-25T13:30:23.566Z,101238.22
2023-02-25T13:33:12.200Z,101232.94
2023-02-25T13:35:55.604Z,101235.63
2023-02-25T13:38:39.886Z,101234.78
2023-02-25T13:41:31.582Z,101236.50
2023-02-25T13:44:40.197Z,101225.97
2023-02-25T13:47:40.478Z,101235.59
2023-02-25T13:50:37.634Z,101224.16
2023-02-25T13:53:42.009Z,101257.72
2023-02-25T13:56:38.612Z,101243.59
2023-02-25T13:59:25.754Z,101227.75
2023-02-25T14:02:25.609Z,101253.34
2023-02-25T14:05:31.606Z,101253.38
2023-02-25T14:08:28.004Z,101253.31
2023-02-25T14:11:26.938Z,101260.44
2023-02-25T14:14:19.951Z,101261.31
2023-02-25T14:17:17.987Z,101261.31
2023-02-25T14:20:06.597Z,101261.28
2023-02-25T14:22:41.465Z,101253.34
2023-02-25T14:25:43.172Z,101263.94
2023-02-25T14:28:24.102Z,101273.66
2023-02-25T14:31:07.707Z,101272.78
2023-02-25T14:34:04.105Z,101285.13
2023-02-25T14:36:57.323Z,101289.53
2023-02-25T14:39:42.685Z,101286.91
2023-02-25T14:42:32.654Z,101295.72
2023-02-25T14:45:07.113Z,101299.25
2023-02-25T14:47:44.221Z,101299.25
2023-02-25T14:50:19.798Z,101313.34
2023-02-25T14:53:45.785Z,101288.53
2023-02-25T14:56:52.430Z,101323.84
2023-02-25T15:00:02.443Z,101331.84
2023-02-25T15:02:54.603Z,101321.28
2023-02-25T15:06:08.042Z,101332.75
2023-02-25T15:09:19.399Z,101326.59
2023-02-25T15:12:13.486Z,101331.88
2023-02-25T15:15:16.907Z,101330.97
2023-02-25T15:18:36.904Z,101352.13
2023-02-25T15:21:40.647Z,101360.94
2023-02-25T15:24:40.558Z,101353.06
2023-02-25T15:27:51.396Z,101350.44
2023-02-25T15:30:23.749Z,101353.91
2023-02-25T15:33:16.831Z,101363.59
2023-02-25T15:35:58.778Z,101367.97
2023-02-25T15:38:46.881Z,101368.81
2023-02-25T15:42:03.917Z,101371.47
2023-02-25T15:44:41.353Z,101370.59
2023-02-25T15:47:30.517Z,101366.16
2023-02-25T15:50:00.587Z,101364.38
2023-02-25T15:52:58.826Z,101359.13
2023-02-25T15:55:40.821Z,101380.19
2023-02-25T15:58:51.546Z,101376.59
2023-02-25T16:01:44.057Z,101380.16
2023-02-25T16:04:50.341Z,101361.53
2023-02-25T16:07:22.533Z,101367.75
2023-02-25T16:09:56.641Z,101399.56
2023-02-25T16:12:26.159Z,101405.75
2023-02-25T16:14:56.699Z,101403.13
2023-02-25T16:17:31.673Z,101408.28
2023-02-25T16:20:13.483Z,101413.56
2023-02-25T16:22:47.325Z,101416.09
2023-02-25T16:25:20.312Z,101421.34
2023-02-25T16:27:58.243Z,101427.38
2023-02-25T16:30:36.004Z,101423.81
2023-02-25T16:33:13.761Z,101427.25
2023-02-25T16:35:55.441Z,101440.53
2023-02-25T16:38:38.423Z,101453.69
2023-02-25T16:41:07.273Z,101434.22
2023-02-25T16:43:39.488Z,101490.56
2023-02-25T16:46:12.736Z,101437.75
2023-02-25T16:48:50.298Z,101457.03
2023-02-25T16:51:26.542Z,101353.66
2023-02-25T16:53:58.335Z,101443.81
2023-02-25T16:56:30.178Z,101465.06
2023-02-25T16:59:18.475Z,101465.91
2023-02-25T17:01:56.943Z,101480.00
2023-02-25T17:04:31.229Z,101480.84
2023-02-25T17:07:14.714Z,101485.28
2023-02-25T17:09:49.509Z,101488.75
2023-02-25T17:12:22.136Z,101488.78
2023-02-25T17:14:54.171Z,101488.78
2023-02-25T17:17:29.108Z,101488.84
2023-02-25T17:19:58.887Z,101489.47
2023-02-25T17:22:29.013Z,101502.81
2023-02-25T17:24:59.409Z,101501.69
2023-02-25T17:27:29.544Z,101497.38
2023-02-25T17:29:58.192Z,101508.03
2023-02-25T17:32:29.666Z,101514.19
2023-02-25T17:35:02.636Z,101491.06
2023-02-25T17:37:34.038Z,101513.22
2023-02-25T17:40:04.355Z,101513.22
2023-02-25T17:42:35.988Z,101515.84
2023-02-25T17:45:08.502Z,101485.84
2023-02-25T17:47:38.205Z,101516.72
2023-02-25T17:50:25.951Z,101514.91
2023-02-25T17:52:56.192Z,101522.88
2023-02-25T17:55:28.360Z,101523.63
2023-02-25T17:58:00.129Z,101522.63
2023-02-25T18:00:35.283Z,101532.34
2023-02-25T18:03:18.398Z,101539.41
2023-02-25T18:05:53.479Z,101536.75
2023-02-25T18:08:24.875Z,101549.19
2023-02-25T18:10:59.592Z,101527.00
2023-02-25T18:13:36.683Z,101547.28
2023-02-25T18:16:42.154Z,101543.75
2023-02-25T18:19:39.139Z,101564.94
2023-02-25T18:22:23.070Z,101542.75
2023-02-25T18:24:57.991Z,101446.28
2023-02-25T18:27:30.554Z,101574.59
2023-02-25T18:30:09.488Z,101578.97
2023-02-25T18:32:39.360Z,101580.78
2023-02-25T18:35:09.783Z,101589.59
2023-02-25T18:37:39.283Z,101589.59
2023-02-25T18:40:16.966Z,101596.63
2023-02-25T18:42:45.397Z,101576.13
2023-02-25T18:45:16.677Z,101575.13
2023-02-25T18:47:45.320Z,101595.53
2023-02-25T18:50:14.824Z,101601.69
2023-02-25T18:52:43.978Z,101605.28
2023-02-25T18:55:22.724Z,101611.34
2023-02-25T18:57:51.517Z,101608.69
2023-02-25T19:00:24.689Z,101624.53
2023-02-25T19:02:56.028Z,101527.06
2023-02-25T19:05:26.225Z,101616.47
2023-02-25T19:07:54.837Z,101628.75
2023-02-25T19:10:28.281Z,101587.22
2023-02-25T19:13:03.615Z,101588.94
2023-02-25T19:15:32.167Z,101625.38
2023-02-25T19:18:00.660Z,101627.16
2023-02-25T19:20:29.147Z,101579.28
2023-02-25T19:22:57.552Z,101629.81
2023-02-25T19:25:30.323Z,101619.09
2023-02-25T19:27:59.059Z,101631.56
2023-02-25T19:30:32.080Z,101635.94
2023-02-25T19:33:04.551Z,101629.66
2023-02-25T19:35:36.043Z,101637.63
2023-02-25T19:38:05.398Z,101637.53
2023-02-25T19:40:35.568Z,101648.94
2023-02-25T19:43:05.400Z,101618.84
2023-02-25T19:45:34.494Z,101637.44
2023-02-25T19:48:03.648Z,101639.03
2023-02-25T19:50:35.079Z,101644.34
2023-02-25T19:53:06.136Z,101646.13
2023-02-25T19:55:36.993Z,101651.41
2023-02-25T19:58:05.592Z,101660.88
2023-02-25T20:00:34.220Z,101653.03
2023-02-25T20:03:03.022Z,101660.03
2023-02-25T20:05:31.458Z,101666.16
2023-02-25T20:08:00.633Z,101660.06
2023-02-25T20:10:29.296Z,101659.22
2023-02-25T20:12:59.117Z,101664.25
2023-02-25T20:15:27.614Z,101673.03
2023-02-25T20:17:57.795Z,101667.81
2023-02-25T20:20:26.388Z,101654.34
2023-02-25T20:22:54.771Z,101678.31
2023-02-25T20:25:23.393Z,101673.59
2023-02-25T20:27:51.767Z,101681.50
2023-02-25T20:30:23.016Z,101680.81
2023-02-25T20:32:51.964Z,101688.81
2023-02-25T20:35:23.196Z,101680.72
2023-02-25T20:38:15.699Z,101682.38
2023-02-25T20:40:44.449Z,101685.84
2023-02-25T20:43:13.486Z,101687.50
2023-02-25T20:45:44.081Z,101688.34
2023-02-25T20:48:27.414Z,101692.63
2023-02-25T20:50:56.634Z,101698.91
2023-02-25T20:53:26.154Z,101691.75
2023-02-25T20:55:57.242Z,101600.31
2023-02-25T20:58:25.634Z,101703.91
2023-02-25T21:00:55.384Z,101698.63
2023-02-25T21:03:24.021Z,101696.88
2023-02-25T21:05:52.318Z,101698.59
2023-02-25T21:08:20.687Z,101708.44
2023-02-25T21:10:49.667Z,101704.81
2023-02-25T21:13:18.146Z,101721.53
2023-02-25T21:15:46.506Z,101725.84
2023-02-25T21:18:16.298Z,101722.19
2023-02-25T21:20:44.840Z,101716.00
2023-02-25T21:23:13.255Z,101722.28
2023-02-25T21:25:41.612Z,101726.69
2023-02-25T21:28:10.053Z,101701.84
2023-02-25T21:30:39.775Z,101736.41
2023-02-25T21:33:08.484Z,101730.25
2023-02-25T21:35:38.370Z,101737.06
2023-02-25T21:38:06.777Z,101699.00
2023-02-25T21:40:35.552Z,101731.00
2023-02-25T21:43:03.854Z,101732.75
2023-02-25T21:45:32.683Z,101721.13
2023-02-25T21:48:01.278Z,101735.34
2023-02-25T21:50:29.639Z,101738.91
2023-02-25T21:52:59.465Z,101611.91
2023-02-25T21:55:28.283Z,101736.94
2023-02-25T21:57:56.662Z,101739.50
2023-02-25T22:00:25.132Z,101737.72
2023-02-25T22:02:53.628Z,101748.25
2023-02-25T22:05:22.036Z,101757.03
2023-02-25T22:07:50.684Z,101763.94
2023-02-25T22:10:21.398Z,101750.59
2023-02-25T22:12:50.929Z,101761.25
2023-02-25T22:15:19.442Z,101761.09
2023-02-25T22:17:47.866Z,101768.34
2023-02-25T22:20:16.653Z,101770.03
2023-02-25T22:22:44.975Z,101763.91
2023-02-25T22:25:13.352Z,101769.28
2023-02-25T22:27:43.072Z,101758.53
2023-02-25T22:30:13.367Z,101752.53
2023-02-25T22:32:41.778Z,101769.44
2023-02-25T22:35:10.864Z,101764.94
2023-02-25T22:37:39.346Z,101771.19
2023-02-25T22:40:09.442Z,101762.34
2023-02-25T22:42:37.991Z,101755.25
2023-02-25T22:45:09.381Z,101765.84
2023-02-25T22:47:37.779Z,101756.28
2023-02-25T22:50:07.609Z,101760.69
2023-02-25T22:52:36.665Z,101767.63
2023-02-25T22:55:05.756Z,101760.69
2023-02-25T22:57:34.103Z,101763.34
2023-02-25T23:00:03.439Z,101764.31
2023-02-25T23:02:33.367Z,101768.63
2023-02-25T23:05:01.810Z,101772.19
2023-02-25T23:07:30.119Z,101770.63
2023-02-25T23:09:58.558Z,101762.59
2023-02-25T23:12:26.910Z,101773.31
2023-02-25T23:14:55.272Z,101783.97
2023-02-25T23:17:23.649Z,101781.22
2023-02-25T23:19:59.177Z,101779.63
2023-02-25T23:22:30.406Z,101774.31
2023-02-25T23:24:58.992Z,101770.66
2023-02-25T23:27:27.338Z,101778.69
2023-02-25T23:29:55.687Z,101769.06
2023-02-25T23:32:25.305Z,101771.69
2023-02-25T23:34:55.069Z,101770.88
2023-02-25T23:37:23.477Z,101778.78
2023-02-25T23:39:51.899Z,101790.13
2023-02-25T23:42:20.318Z,101777.81
2023-02-25T23:44:48.756Z,101772.41
2023-02-25T23:47:17.511Z,101781.06
2023-02-25T23:49:45.931Z,101784.75
2023-02-25T23:52:15.678Z,101790.06
2023-02-25T23:54:43.991Z,101795.25
2023-02-25T23:57:12.394Z,101804.88
2023-02-25T23:59:40.737Z,101809.19
